GLO1138 SBFN-SBRF
Flight info
| Callsign | GLO1138 |
|---|---|
| Flight time | N/A |
| Altitude | 28000 |
| Route | DCT FNR UB623 UBRUT |
| Aircraft | B738/M-SDFGIKLORWXY/LB1 |
Departure
| Time | 2026-04-24 16:52 |
|---|---|
| Airport | Fernando de Noronha Airport (SBFN) |
Arrival
| Time | N/A |
|---|---|
| Airport | Recife/Guararapes - Gilberto Freyre International Airport (SBRF) |
| Time | Latitude | Longitude | Altitude | Speed | Heading |
|---|---|---|---|---|---|
| 2026-04-24 16:29 | -3.85592 | -32.42788 | 180 ft | 0 kts | 210° |
| 2026-04-24 16:47 | -3.85594 | -32.42791 | 180 ft | 1 kts | 253° |
| 2026-04-24 16:48 | -3.85578 | -32.42806 | 181 ft | 6 kts | 321° |
| 2026-04-24 16:48 | -3.85554 | -32.42865 | 183 ft | 9 kts | 284° |
| 2026-04-24 16:48 | -3.85517 | -32.42905 | 184 ft | 6 kts | 324° |
| 2026-04-24 16:48 | -3.85488 | -32.42926 | 185 ft | 0 kts | 324° |
| 2026-04-24 16:49 | -3.85472 | -32.42938 | 185 ft | 5 kts | 324° |
| 2026-04-24 16:49 | -3.85423 | -32.42974 | 187 ft | 9 kts | 320° |
| 2026-04-24 16:49 | -3.85398 | -32.43024 | 189 ft | 7 kts | 270° |
| 2026-04-24 16:50 | -3.85409 | -32.43055 | 190 ft | 7 kts | 229° |
| 2026-04-24 16:50 | -3.85406 | -32.43100 | 192 ft | 5 kts | 356° |
| 2026-04-24 16:50 | -3.85390 | -32.43079 | 191 ft | 0 kts | 97° |
| 2026-04-24 16:51 | -3.85391 | -32.43070 | 191 ft | 15 kts | 97° |
| 2026-04-24 16:51 | -3.85418 | -32.42645 | 180 ft | 102 kts | 94° |
| 2026-04-24 16:51 | -3.85482 | -32.41706 | 196 ft | 167 kts | 93° |
| 2026-04-24 16:52 | -3.85602 | -32.40488 | 782 ft | 176 kts | 95° |
| 2026-04-24 16:52 | -3.85804 | -32.39332 | 1556 ft | 175 kts | 108° |
| 2026-04-24 16:52 | -3.86283 | -32.38130 | 2024 ft | 191 kts | 110° |
| 2026-04-24 16:52 | -3.86769 | -32.36865 | 2585 ft | 202 kts | 120° |
| 2026-04-24 16:53 | -3.87855 | -32.35928 | 3069 ft | 220 kts | 160° |
| 2026-04-24 16:53 | -3.89437 | -32.35899 | 3539 ft | 240 kts | 198° |
| 2026-04-24 16:53 | -3.90985 | -32.36655 | 4150 ft | 254 kts | 211° |
| 2026-04-24 16:53 | -3.92508 | -32.37635 | 4770 ft | 268 kts | 213° |
| 2026-04-24 16:54 | -3.94080 | -32.38730 | 5452 ft | 279 kts | 214° |
| 2026-04-24 16:54 | -3.95679 | -32.39878 | 6245 ft | 285 kts | 215° |
| 2026-04-24 16:54 | -3.97295 | -32.41038 | 7092 ft | 289 kts | 214° |
| 2026-04-24 16:54 | -3.98936 | -32.42209 | 7882 ft | 293 kts | 214° |
| 2026-04-24 16:55 | -4.00612 | -32.43398 | 8691 ft | 297 kts | 214° |
| 2026-04-24 16:55 | -4.02296 | -32.44591 | 9459 ft | 301 kts | 214° |
| 2026-04-24 16:55 | -4.04018 | -32.45810 | 10225 ft | 305 kts | 214° |
| 2026-04-24 16:55 | -4.05788 | -32.47062 | 10731 ft | 319 kts | 214° |